Aviation Digital Data Service (ADDS)

Output produced by METARs form (1826 UTC 19 April 2019)
found at http://www.aviationweather.gov/metar/data/
 
Forecast for: DTTJ (DJERBA MELLITA , TN)
Text: TAF DTTJ 191700Z 1918/2018 08022KT 6000 FEW026
Forecast period: 1800 UTC 19 April 2019 to 1800 UTC 20 April 2019
Forecast type: FROM: standard forecast or significant change
Winds: from the E (80 degrees) at 25 MPH (22 knots; 11.3 m/s)
Visibility: 4 miles (6 km)
Ceiling: at least 12,000 feet AGL
Clouds: few clouds at 2600 feet AGL
Weather: no significant weather forecast for this period
Text: BECMG 1918/1920 09021G35KT
Forecast period: 1800 UTC 19 April 2019 to 1800 UTC 20 April 2019
Forecast type: BECOMING: Conditions expected to become as follows by 2000 UTC 19 April 2019
Winds: from the E (90 degrees) at 24 MPH (21 knots; 10.8 m/s)
gusting to 40 MPH (35 knots; 18.0 m/s)
Visibility: 4 miles (6 km)
Ceiling: at least 12,000 feet AGL
Clouds: few clouds at 2600 feet AGL
Weather: no significant weather forecast for this period
Text: PROB40
Forecast period: 0600 to 1800 UTC 20 April 2019
Forecast type: TEMPORARY: The following changes expected for less than half the time period
Winds: from the E (90 degrees) at 34 MPH (30 knots; 15.4 m/s)
gusting to 46 MPH (40 knots; 20.6 m/s)
Visibility: 0.75 miles (1.21 km)
Ceiling: unknown
Clouds: missing
Weather: SA  (sand)